createdAt,value
2019-02-09T00:00:31.503Z,2.20
2019-02-09T00:03:09.210Z,2.30
2019-02-09T00:05:45.874Z,2.30
2019-02-09T00:08:22.664Z,2.30
2019-02-09T00:10:59.439Z,2.40
2019-02-09T00:13:36.282Z,2.40
2019-02-09T00:16:13.091Z,2.40
2019-02-09T00:18:49.870Z,2.50
2019-02-09T00:21:26.852Z,2.50
2019-02-09T00:24:03.522Z,2.50
2019-02-09T00:26:40.297Z,2.50
2019-02-09T00:29:17.182Z,2.60
2019-02-09T00:31:54.148Z,2.60
2019-02-09T00:34:30.929Z,2.70
2019-02-09T00:37:07.705Z,2.70
2019-02-09T00:39:44.477Z,2.70
2019-02-09T00:42:21.363Z,2.80
2019-02-09T00:44:58.131Z,2.80
2019-02-09T00:47:36.132Z,2.80
2019-02-09T00:50:15.671Z,2.80
2019-02-09T00:52:52.543Z,2.80
2019-02-09T00:55:29.736Z,2.80
2019-02-09T00:58:06.508Z,2.80
2019-02-09T01:00:43.281Z,2.80
2019-02-09T01:03:20.274Z,2.70
2019-02-09T01:05:57.049Z,2.70
2019-02-09T01:08:34.535Z,2.60
2019-02-09T01:11:11.318Z,2.60
2019-02-09T01:13:49.104Z,2.50
2019-02-09T01:19:23.045Z,2.60
2019-02-09T01:22:37.214Z,2.60
2019-02-09T01:25:58.001Z,2.60
2019-02-09T01:29:06.159Z,2.60
2019-02-09T01:32:03.233Z,2.70
2019-02-09T01:34:40.245Z,2.70
2019-02-09T01:37:17.318Z,2.70
2019-02-09T01:43:18.707Z,2.80
2019-02-09T01:45:55.407Z,2.90
2019-02-09T01:48:32.258Z,3.00
2019-02-09T01:51:09.030Z,3.00
2019-02-09T01:53:45.791Z,3.10
2019-02-09T01:56:22.573Z,3.70
2019-02-09T01:58:59.344Z,3.20
2019-02-09T02:01:36.230Z,3.20
2019-02-09T02:04:13.012Z,3.30
2019-02-09T02:06:49.980Z,3.40
2019-02-09T02:09:26.763Z,3.40
2019-02-09T02:12:04.057Z,3.40
2019-02-09T02:14:40.825Z,3.50
2019-02-09T02:17:17.597Z,3.50
2019-02-09T02:19:54.383Z,3.50
2019-02-09T02:22:31.243Z,3.60
2019-02-09T02:25:09.195Z,3.60
2019-02-09T02:27:45.936Z,3.60
2019-02-09T02:30:29.064Z,3.70
2019-02-09T02:33:08.493Z,3.70
2019-02-09T02:35:45.275Z,3.70
2019-02-09T02:38:22.050Z,3.70
2019-02-09T02:40:58.833Z,3.70
2019-02-09T02:43:35.695Z,3.70
2019-02-09T02:46:12.479Z,3.70
2019-02-09T02:48:49.463Z,3.70
2019-02-09T02:51:26.229Z,3.70
2019-02-09T02:54:03.006Z,3.70
2019-02-09T02:56:39.779Z,3.80
2019-02-09T02:59:16.558Z,3.70
2019-02-09T03:01:53.444Z,3.70
2019-02-09T03:04:30.317Z,3.70
2019-02-09T03:07:07.091Z,3.60
2019-02-09T03:09:43.824Z,3.60
2019-02-09T03:12:20.642Z,3.60
2019-02-09T03:14:57.424Z,3.60
2019-02-09T03:17:34.181Z,3.60
2019-02-09T03:20:14.387Z,3.60
2019-02-09T03:22:51.121Z,3.60
2019-02-09T03:25:30.746Z,3.60
2019-02-09T03:28:07.544Z,3.60
2019-02-09T03:30:48.364Z,3.60
2019-02-09T03:33:22.982Z,3.60
2019-02-09T03:35:59.815Z,3.60
2019-02-09T03:38:36.568Z,3.60
2019-02-09T03:41:13.425Z,3.60
2019-02-09T03:43:54.271Z,3.70
2019-02-09T03:46:36.547Z,3.70
2019-02-09T03:49:17.816Z,3.70
2019-02-09T03:52:07.044Z,3.70
2019-02-09T03:54:56.405Z,3.70
2019-02-09T03:58:10.614Z,3.70
2019-02-09T04:01:01.764Z,3.70
2019-02-09T04:04:14.699Z,3.80
2019-02-09T04:06:55.319Z,3.80
2019-02-09T04:09:36.439Z,3.80
2019-02-09T04:12:21.355Z,3.80
2019-02-09T04:15:03.261Z,3.80
2019-02-09T04:17:45.012Z,3.80
2019-02-09T04:20:29.843Z,3.80
2019-02-09T04:23:07.803Z,3.80
2019-02-09T04:25:44.594Z,3.80
2019-02-09T04:28:21.360Z,3.80
2019-02-09T04:31:05.500Z,3.80
2019-02-09T04:33:36.662Z,3.80
2019-02-09T04:36:13.432Z,3.90
2019-02-09T04:38:50.215Z,3.90
2019-02-09T04:41:26.987Z,3.90
2019-02-09T04:44:03.794Z,4.00
2019-02-09T04:46:40.637Z,4.00
2019-02-09T04:49:17.413Z,4.00
2019-02-09T04:51:54.299Z,4.10
2019-02-09T04:54:31.065Z,4.10
2019-02-09T04:57:07.845Z,4.10
2019-02-09T04:59:44.606Z,4.10
2019-02-09T05:02:50.467Z,4.10
2019-02-09T05:05:50.835Z,4.10
2019-02-09T05:08:44.780Z,4.10
2019-02-09T05:11:24.596Z,4.10
2019-02-09T05:14:25.933Z,4.10
2019-02-09T05:17:24.773Z,4.10
2019-02-09T05:20:01.575Z,4.10
2019-02-09T05:22:38.420Z,4.10
2019-02-09T05:25:16.073Z,4.20
2019-02-09T05:27:53.931Z,4.20
2019-02-09T05:30:31.127Z,4.30
2019-02-09T05:33:07.987Z,4.30
2019-02-09T05:35:44.647Z,4.30
2019-02-09T05:38:21.438Z,4.30
2019-02-09T05:40:58.212Z,4.30
2019-02-09T05:43:35.089Z,4.30
2019-02-09T05:46:13.288Z,4.30
2019-02-09T05:48:50.487Z,4.40
2019-02-09T05:51:27.149Z,4.40
2019-02-09T05:54:06.647Z,4.40
2019-02-09T05:56:48.433Z,4.40
2019-02-09T05:59:28.436Z,4.40
2019-02-09T06:02:08.199Z,4.40
2019-02-09T06:04:50.237Z,4.40
2019-02-09T06:07:30.811Z,4.50
2019-02-09T06:10:14.186Z,4.50
2019-02-09T06:13:06.471Z,4.50
2019-02-09T06:16:11.494Z,4.50
2019-02-09T06:23:17.968Z,4.50
2019-02-09T06:29:49.950Z,4.50
2019-02-09T06:32:37.610Z,4.50
2019-02-09T06:35:14.338Z,4.60
2019-02-09T06:37:52.678Z,4.70
2019-02-09T06:40:29.376Z,4.80
2019-02-09T06:43:06.127Z,4.80
2019-02-09T06:45:42.882Z,4.70
2019-02-09T06:48:26.235Z,4.70
2019-02-09T06:51:02.991Z,4.70
2019-02-09T06:53:40.781Z,4.70
2019-02-09T06:56:17.561Z,4.70
2019-02-09T06:58:54.448Z,4.70
2019-02-09T07:01:31.223Z,4.70
2019-02-09T07:04:08.410Z,4.70
2019-02-09T07:06:45.170Z,4.70
2019-02-09T07:09:21.890Z,4.70
2019-02-09T07:11:59.648Z,4.80
2019-02-09T07:14:36.425Z,4.80
2019-02-09T07:17:13.207Z,4.80
2019-02-09T07:19:49.866Z,4.80
2019-02-09T07:22:26.765Z,4.80
2019-02-09T07:25:03.741Z,4.80
2019-02-09T07:27:40.465Z,5.40
2019-02-09T07:30:33.731Z,4.90
2019-02-09T07:33:14.620Z,4.90
2019-02-09T07:35:56.166Z,5.00
2019-02-09T07:38:32.905Z,5.00
2019-02-09T07:41:09.789Z,5.00
2019-02-09T07:43:46.559Z,5.10
2019-02-09T07:46:23.229Z,5.10
2019-02-09T07:49:00.009Z,5.20
2019-02-09T07:51:36.784Z,5.30
2019-02-09T07:54:13.573Z,5.30
2019-02-09T07:56:50.469Z,5.30
2019-02-09T07:59:27.206Z,5.40
2019-02-09T08:02:04.856Z,5.40
2019-02-09T08:04:42.289Z,5.40
2019-02-09T08:07:19.127Z,5.40
2019-02-09T08:09:56.360Z,5.40
2019-02-09T08:12:33.234Z,5.50
2019-02-09T08:15:19.935Z,5.50
2019-02-09T08:17:56.728Z,5.50
2019-02-09T08:20:51.062Z,5.60
2019-02-09T08:23:27.908Z,5.70
2019-02-09T08:26:04.680Z,5.80
2019-02-09T08:28:41.428Z,5.90
2019-02-09T08:31:18.216Z,6.00
2019-02-09T08:33:54.994Z,6.30
2019-02-09T08:36:31.767Z,6.10
2019-02-09T08:39:08.958Z,6.10
2019-02-09T08:41:45.826Z,6.20
2019-02-09T08:44:22.609Z,6.10
2019-02-09T08:46:59.323Z,6.20
2019-02-09T08:49:36.053Z,6.20
2019-02-09T08:52:12.834Z,6.20
2019-02-09T08:54:50.634Z,6.20
2019-02-09T08:57:27.508Z,6.10
2019-02-09T09:00:09.892Z,6.10
2019-02-09T09:02:46.688Z,6.00
2019-02-09T09:05:23.391Z,5.90
2019-02-09T09:08:00.129Z,5.90
2019-02-09T09:10:36.910Z,5.80
2019-02-09T09:13:13.679Z,5.80
2019-02-09T09:15:55.003Z,5.80
2019-02-09T09:18:31.740Z,5.70
2019-02-09T09:21:09.851Z,5.70
2019-02-09T09:23:46.627Z,5.70
2019-02-09T09:26:23.404Z,5.70
2019-02-09T09:29:00.184Z,5.70
2019-02-09T09:31:36.958Z,5.70
2019-02-09T09:34:13.735Z,5.70
2019-02-09T09:36:51.951Z,5.70
2019-02-09T09:39:28.725Z,5.70
2019-02-09T09:42:05.598Z,5.70
2019-02-09T09:44:42.375Z,5.60
2019-02-09T09:47:20.270Z,5.70
2019-02-09T09:49:57.152Z,5.70
2019-02-09T09:52:43.465Z,5.70
2019-02-09T09:55:30.212Z,5.70
2019-02-09T09:58:13.676Z,5.80
2019-02-09T10:00:51.002Z,5.80
2019-02-09T10:03:27.858Z,5.90
2019-02-09T10:06:04.506Z,5.90
2019-02-09T10:08:41.229Z,5.90
2019-02-09T10:11:17.950Z,6.00
2019-02-09T10:14:08.561Z,6.00
2019-02-09T10:16:54.140Z,6.10
2019-02-09T10:19:42.343Z,6.00
2019-02-09T10:22:22.460Z,6.10
2019-02-09T10:24:59.183Z,6.10
2019-02-09T10:27:35.893Z,6.10
2019-02-09T10:30:34.259Z,6.20
2019-02-09T10:33:10.967Z,6.30
2019-02-09T10:35:47.727Z,6.30
2019-02-09T10:38:24.456Z,6.40
2019-02-09T10:41:01.174Z,6.40
2019-02-09T10:43:38.051Z,6.50
2019-02-09T10:46:15.545Z,6.50
2019-02-09T10:48:52.345Z,6.60
2019-02-09T10:51:29.097Z,6.60
2019-02-09T10:54:05.813Z,6.70
2019-02-09T10:56:42.657Z,6.70
2019-02-09T10:59:19.430Z,6.80
2019-02-09T11:01:56.207Z,6.80
2019-02-09T11:04:32.974Z,6.90
2019-02-09T11:07:09.766Z,6.90
2019-02-09T11:09:46.492Z,6.90
2019-02-09T11:12:23.259Z,7.10
2019-02-09T11:15:01.464Z,7.20
2019-02-09T11:17:38.198Z,7.20
2019-02-09T11:20:18.311Z,7.40
2019-02-09T11:22:55.023Z,7.40
2019-02-09T11:25:31.700Z,7.30
2019-02-09T11:28:08.456Z,7.30
2019-02-09T11:30:45.211Z,7.20
2019-02-09T11:33:21.933Z,7.20
2019-02-09T11:35:59.949Z,7.10
2019-02-09T11:38:36.809Z,7.20
2019-02-09T11:41:13.575Z,7.30
2019-02-09T11:43:50.367Z,7.30
2019-02-09T11:46:27.351Z,7.40
2019-02-09T11:49:04.077Z,7.50
2019-02-09T11:51:40.796Z,7.60
2019-02-09T11:54:17.552Z,7.60
2019-02-09T11:56:54.334Z,7.70
2019-02-09T11:59:31.110Z,7.80
2019-02-09T12:02:08.299Z,7.80
2019-02-09T12:04:45.007Z,7.90
2019-02-09T12:07:21.933Z,8.00
2019-02-09T12:09:58.720Z,8.10
2019-02-09T12:12:35.595Z,8.20
2019-02-09T12:15:33.771Z,8.20
2019-02-09T12:18:13.406Z,8.20
2019-02-09T12:20:50.512Z,8.40
2019-02-09T12:23:27.383Z,8.50
2019-02-09T12:26:04.569Z,8.60
2019-02-09T12:28:41.345Z,8.50
2019-02-09T12:31:18.118Z,8.40
2019-02-09T12:33:54.991Z,8.30
2019-02-09T12:36:31.801Z,8.20
2019-02-09T12:39:09.893Z,8.10
2019-02-09T12:41:46.632Z,8.00
2019-02-09T12:44:23.436Z,8.10
2019-02-09T12:47:00.613Z,8.10
2019-02-09T12:49:37.378Z,8.20
2019-02-09T12:52:14.268Z,8.30
2019-02-09T12:54:51.042Z,8.30
2019-02-09T12:57:27.717Z,8.40
2019-02-09T13:00:07.456Z,8.50
2019-02-09T13:02:44.851Z,8.50
2019-02-09T13:05:21.518Z,8.60
2019-02-09T13:07:58.294Z,8.60
2019-02-09T13:10:35.993Z,8.70
2019-02-09T13:13:12.863Z,8.70
2019-02-09T13:15:49.577Z,8.70
2019-02-09T13:18:26.430Z,8.70
2019-02-09T13:21:03.142Z,8.70
2019-02-09T13:23:39.974Z,8.70
2019-02-09T13:26:16.656Z,8.60
2019-02-09T13:28:53.581Z,8.70
2019-02-09T13:31:30.407Z,8.60
2019-02-09T13:34:08.329Z,8.70
2019-02-09T13:36:45.037Z,8.70
2019-02-09T13:39:21.864Z,8.70
2019-02-09T13:41:58.728Z,8.70
2019-02-09T13:44:35.513Z,8.60
2019-02-09T13:47:12.258Z,8.50
2019-02-09T13:49:49.070Z,8.50
2019-02-09T13:52:25.830Z,8.40
2019-02-09T13:55:02.565Z,8.40
2019-02-09T13:57:39.246Z,8.30
2019-02-09T14:00:25.842Z,8.30
2019-02-09T14:03:03.290Z,8.30
2019-02-09T14:05:40.322Z,8.30
2019-02-09T14:08:17.042Z,8.30
2019-02-09T14:10:53.725Z,8.30
2019-02-09T14:13:30.532Z,8.30
2019-02-09T14:16:08.348Z,8.30
2019-02-09T14:18:45.259Z,8.40
2019-02-09T14:21:21.923Z,8.40
2019-02-09T14:23:58.714Z,8.30
2019-02-09T14:26:35.492Z,8.20
2019-02-09T14:29:12.259Z,8.10
2019-02-09T14:31:49.033Z,7.90
2019-02-09T14:34:25.820Z,7.80
2019-02-09T14:37:04.121Z,7.70
2019-02-09T14:39:40.913Z,7.70
2019-02-09T14:42:17.979Z,7.60
2019-02-09T14:44:54.760Z,7.70
2019-02-09T14:47:31.541Z,7.60
2019-02-09T14:50:12.058Z,7.60
2019-02-09T14:52:49.295Z,7.60
2019-02-09T14:55:31.971Z,7.60
2019-02-09T14:58:09.398Z,7.70
2019-02-09T15:00:55.094Z,7.80
2019-02-09T15:03:31.976Z,7.80
2019-02-09T15:06:08.843Z,7.80
2019-02-09T15:08:45.613Z,7.80
2019-02-09T15:11:22.490Z,7.90
2019-02-09T15:13:59.266Z,7.80
2019-02-09T15:16:36.044Z,7.80
2019-02-09T15:19:14.063Z,7.80
2019-02-09T15:21:50.920Z,7.80
2019-02-09T15:24:27.802Z,7.80
2019-02-09T15:27:04.574Z,7.80
2019-02-09T15:29:41.357Z,7.70
2019-02-09T15:32:18.329Z,7.50
2019-02-09T15:34:55.527Z,7.40
2019-02-09T15:37:32.296Z,7.20
2019-02-09T15:40:18.502Z,7.00
2019-02-09T15:42:55.570Z,7.00
2019-02-09T15:45:32.456Z,6.90
2019-02-09T15:48:09.229Z,6.80
2019-02-09T15:50:46.112Z,6.80
2019-02-09T15:53:22.982Z,6.70
2019-02-09T15:55:59.769Z,6.60
2019-02-09T15:58:37.546Z,6.50
2019-02-09T16:01:14.324Z,6.50
2019-02-09T16:03:51.522Z,6.50
2019-02-09T16:06:28.281Z,6.50
2019-02-09T16:09:07.228Z,6.40
2019-02-09T16:11:44.410Z,6.40
2019-02-09T16:14:21.271Z,6.30
2019-02-09T16:16:59.582Z,6.30
2019-02-09T16:19:36.340Z,6.20
2019-02-09T16:22:14.279Z,6.10
2019-02-09T16:24:51.151Z,6.00
2019-02-09T16:27:27.827Z,5.90
2019-02-09T16:30:08.416Z,5.80
2019-02-09T16:32:45.101Z,5.70
2019-02-09T16:35:24.607Z,5.60
2019-02-09T16:38:01.347Z,5.50
2019-02-09T16:40:38.212Z,5.50
2019-02-09T16:43:14.985Z,5.40
2019-02-09T16:45:51.716Z,5.40
2019-02-09T16:48:29.491Z,5.30
2019-02-09T16:51:06.210Z,5.20
2019-02-09T16:53:42.993Z,5.20
2019-02-09T16:56:19.740Z,5.10
2019-02-09T16:58:56.454Z,5.10
2019-02-09T17:01:33.175Z,5.10
2019-02-09T17:04:09.915Z,5.10
2019-02-09T17:06:46.680Z,5.10
2019-02-09T17:09:23.349Z,5.00
2019-02-09T17:12:00.685Z,5.00
2019-02-09T17:14:37.450Z,4.90
2019-02-09T17:17:14.449Z,4.90
2019-02-09T17:19:51.118Z,4.90
2019-02-09T17:22:27.887Z,4.80
2019-02-09T17:25:06.332Z,4.80
2019-02-09T17:27:43.028Z,4.80
2019-02-09T17:30:33.660Z,4.80
2019-02-09T17:33:10.330Z,4.70
2019-02-09T17:35:47.018Z,4.80
2019-02-09T17:38:23.771Z,4.80
2019-02-09T17:41:00.463Z,4.80
2019-02-09T17:43:37.157Z,4.80
2019-02-09T17:46:13.956Z,4.80
2019-02-09T17:48:50.652Z,4.90
2019-02-09T17:51:27.383Z,4.90
2019-02-09T17:54:04.078Z,4.90
2019-02-09T17:56:40.807Z,5.00
2019-02-09T17:59:17.472Z,5.00
2019-02-09T18:01:54.198Z,5.10
2019-02-09T18:04:30.876Z,5.10
2019-02-09T18:07:07.569Z,5.10
2019-02-09T18:09:44.348Z,5.20
2019-02-09T18:12:21.048Z,5.20
2019-02-09T18:14:57.824Z,5.20
2019-02-09T18:17:34.773Z,5.20
2019-02-09T18:20:16.800Z,5.20
2019-02-09T18:22:53.595Z,5.20
2019-02-09T18:25:30.295Z,5.20
2019-02-09T18:28:07.009Z,5.20
2019-02-09T18:30:43.662Z,5.20
2019-02-09T18:33:20.368Z,5.20
2019-02-09T18:35:57.014Z,5.20
2019-02-09T18:38:33.757Z,5.20
2019-02-09T18:41:10.513Z,5.20
2019-02-09T18:43:47.304Z,5.30
2019-02-09T18:46:24.003Z,5.20
2019-02-09T18:49:00.837Z,5.20
2019-02-09T18:51:38.752Z,5.20
2019-02-09T18:54:15.442Z,5.20
2019-02-09T18:56:52.147Z,5.20
2019-02-09T18:59:28.968Z,5.20
2019-02-09T19:02:05.847Z,5.20
2019-02-09T19:04:42.615Z,5.20
2019-02-09T19:07:19.391Z,5.20
2019-02-09T19:09:56.159Z,5.20
2019-02-09T19:12:32.939Z,5.20
2019-02-09T19:15:14.443Z,5.20
2019-02-09T19:17:51.131Z,5.20
2019-02-09T19:20:41.084Z,5.30
2019-02-09T19:23:17.884Z,5.30
2019-02-09T19:25:54.642Z,5.30
2019-02-09T19:28:31.379Z,5.30
2019-02-09T19:31:08.448Z,5.30
2019-02-09T19:33:45.189Z,5.30
2019-02-09T19:36:21.952Z,5.40
2019-02-09T19:38:58.719Z,5.40
2019-02-09T19:41:35.589Z,5.30
2019-02-09T19:44:12.288Z,5.40
2019-02-09T19:46:48.955Z,5.40
2019-02-09T19:49:25.677Z,5.40
2019-02-09T19:52:02.410Z,5.40
2019-02-09T19:54:39.123Z,5.40
2019-02-09T19:57:15.836Z,5.50
2019-02-09T19:59:52.582Z,5.50
2019-02-09T20:02:29.526Z,5.50
2019-02-09T20:05:08.647Z,5.50
2019-02-09T20:07:45.394Z,5.50
2019-02-09T20:10:26.543Z,5.60
2019-02-09T20:13:07.428Z,5.70
2019-02-09T20:15:51.250Z,5.70
2019-02-09T20:18:36.586Z,5.70
2019-02-09T20:21:20.905Z,5.70
2019-02-09T20:24:06.282Z,5.70
2019-02-09T20:26:52.688Z,5.80
2019-02-09T20:29:36.814Z,5.80
2019-02-09T20:32:20.914Z,5.80
2019-02-09T20:35:05.688Z,5.80
2019-02-09T20:37:51.365Z,5.70
2019-02-09T20:40:52.010Z,5.70
2019-02-09T20:43:35.055Z,5.70
2019-02-09T20:46:17.623Z,5.70
2019-02-09T20:49:00.848Z,5.70
2019-02-09T20:51:44.306Z,5.60
2019-02-09T20:54:29.648Z,5.60
2019-02-09T20:57:12.142Z,5.60
2019-02-09T20:59:55.315Z,5.60
2019-02-09T21:02:40.145Z,5.60
2019-02-09T21:05:22.140Z,5.50
2019-02-09T21:08:06.162Z,5.50
2019-02-09T21:10:50.901Z,5.50
2019-02-09T21:13:33.511Z,5.50
2019-02-09T21:16:16.508Z,5.40
2019-02-09T21:18:58.770Z,5.40
2019-02-09T21:21:41.267Z,5.40
2019-02-09T21:24:24.236Z,5.30
2019-02-09T21:27:09.628Z,5.30
2019-02-09T21:29:50.958Z,5.30
2019-02-09T21:32:40.140Z,5.20
2019-02-09T21:35:21.488Z,5.20
2019-02-09T21:38:03.454Z,5.20
2019-02-09T21:40:47.662Z,5.10
2019-02-09T21:43:33.122Z,5.20
2019-02-09T21:46:19.809Z,5.10
2019-02-09T21:49:00.260Z,5.10
2019-02-09T21:51:42.636Z,5.00
2019-02-09T21:54:30.275Z,5.00
2019-02-09T21:57:13.567Z,5.00
2019-02-09T21:59:54.799Z,5.00
2019-02-09T22:02:47.816Z,5.00
2019-02-09T22:05:20.940Z,4.90
2019-02-09T22:08:00.533Z,4.90
2019-02-09T22:10:41.335Z,4.90
2019-02-09T22:13:24.243Z,4.90
2019-02-09T22:16:09.697Z,4.90
2019-02-09T22:18:49.930Z,4.90
2019-02-09T22:21:29.328Z,4.90
2019-02-09T22:24:14.822Z,4.90
2019-02-09T22:27:01.573Z,4.90
2019-02-09T22:29:43.462Z,4.90
2019-02-09T22:32:27.788Z,4.90
2019-02-09T22:35:14.822Z,4.90
2019-02-09T22:37:58.482Z,4.90
2019-02-09T22:40:46.430Z,4.90
2019-02-09T22:43:30.402Z,4.80
2019-02-09T22:46:14.959Z,4.90
2019-02-09T22:49:00.191Z,4.80
2019-02-09T22:51:41.480Z,4.80
2019-02-09T22:54:23.981Z,4.80
2019-02-09T22:57:09.340Z,4.80
2019-02-09T22:59:52.233Z,4.80
2019-02-09T23:02:35.076Z,4.80
2019-02-09T23:05:55.967Z,4.70
2019-02-09T23:08:43.184Z,4.70
2019-02-09T23:11:26.387Z,4.60
2019-02-09T23:14:08.511Z,4.60
2019-02-09T23:16:56.770Z,4.60
2019-02-09T23:19:36.618Z,4.50
2019-02-09T23:22:21.478Z,4.50
2019-02-09T23:25:04.614Z,4.60
2019-02-09T23:27:49.073Z,4.50
2019-02-09T23:30:31.262Z,4.50
2019-02-09T23:33:16.135Z,4.50
2019-02-09T23:35:57.729Z,4.50
2019-02-09T23:38:44.328Z,4.40
2019-02-09T23:41:29.413Z,4.40
2019-02-09T23:44:13.021Z,4.40
2019-02-09T23:46:55.832Z,4.40
2019-02-09T23:49:39.091Z,4.40
2019-02-09T23:52:23.433Z,4.40
2019-02-09T23:55:09.061Z,4.40
2019-02-09T23:57:52.857Z,4.40
